Saint Columbans, Nebraska
Current Conditions -  °F | °C
As of 7:23 PM on Wednesday 22 Oct 2014 (Local Time) from KOFF Reporting Station
Broken Clouds Broken Clouds  
Wind Chill: 68°   Ceiling: 7000
Heat Index: 68°   Visibility: 10mi
Dew Point: 59°   Wind: 13mph
Humidity: 73%   Direction: 280°W
Pressure: 30.03"   Gusts: 24mph
Location:  41.1°N, 95.87°W
Report Text: KOFF 230023Z AUTO 28011G21KT 260V320 10SM FEW035 SCT047 BKN070 BKN080 20/15 A3003 RMK AO2 WSHFT 18
Loading
Personal Weather Stations






























Interactive Weather Map
Tropical Storm Tracking
New forecast layout! Learn more

10-Day Weather Forecast

Advertisements
Track Severe Weather on mobile